createdAt,value
2022-11-10T00:02:46.677Z,14.01
2022-11-10T00:07:53.688Z,14.27
2022-11-10T00:13:00.920Z,11.42
2022-11-10T00:18:07.913Z,14.95
2022-11-10T00:23:15.119Z,14.16
2022-11-10T00:28:22.226Z,16.81
2022-11-10T00:33:29.351Z,17.40
2022-11-10T00:38:37.818Z,14.03
2022-11-10T00:43:45.006Z,14.70
2022-11-10T00:48:51.952Z,16.40
2022-11-10T00:54:00.228Z,16.41
2022-11-10T00:59:07.255Z,13.02
2022-11-10T01:04:14.334Z,11.78
2022-11-10T01:09:24.065Z,12.81
2022-11-10T01:14:31.178Z,15.20
2022-11-10T01:19:33.430Z,10.82
2022-11-10T01:24:40.531Z,9.59
2022-11-10T01:29:47.506Z,12.87
2022-11-10T01:34:54.679Z,12.93
2022-11-10T01:40:01.697Z,14.06
2022-11-10T01:45:08.776Z,10.02
2022-11-10T01:50:15.827Z,9.76
2022-11-10T01:55:22.963Z,12.22
2022-11-10T02:00:30.037Z,7.30
2022-11-10T02:05:37.279Z,13.24
2022-11-10T02:10:44.245Z,13.32
2022-11-10T02:15:51.245Z,11.60
2022-11-10T02:20:58.209Z,12.75
2022-11-10T02:26:05.263Z,8.26
2022-11-10T02:31:12.293Z,10.61
2022-11-10T02:36:19.281Z,4.06
2022-11-10T02:41:26.603Z,7.35
2022-11-10T02:46:33.704Z,8.93
2022-11-10T02:51:40.851Z,12.30
2022-11-10T02:56:49.337Z,9.83
2022-11-10T03:01:55.178Z,11.09
2022-11-10T03:04:29.200Z,13.11
2022-11-10T03:09:36.469Z,14.53
2022-11-10T03:14:43.421Z,11.53
2022-11-10T03:19:50.552Z,12.43
2022-11-10T03:24:57.594Z,11.49
2022-11-10T03:30:04.562Z,9.18
2022-11-10T03:35:11.653Z,12.25
2022-11-10T03:40:18.724Z,10.37
2022-11-10T03:45:25.867Z,7.11
2022-11-10T03:50:32.875Z,10.92
2022-11-10T03:55:39.857Z,8.44
2022-11-10T04:00:46.913Z,6.92
2022-11-10T04:05:53.992Z,9.06
2022-11-10T04:11:01.051Z,8.70
2022-11-10T04:16:08.076Z,10.15
2022-11-10T04:21:15.043Z,8.88
2022-11-10T04:26:22.059Z,6.20
2022-11-10T04:31:29.072Z,7.22
2022-11-10T04:36:36.180Z,5.51
2022-11-10T04:41:43.148Z,8.87
2022-11-10T04:46:50.252Z,6.65
2022-11-10T04:51:57.500Z,6.46
2022-11-10T04:57:04.479Z,31.61
2022-11-10T05:02:11.579Z,7.12
2022-11-10T05:07:20.150Z,2.65
2022-11-10T05:12:27.221Z,3.03
2022-11-10T05:17:34.165Z,14.48
2022-11-10T05:22:44.135Z,6.31
2022-11-10T05:27:47.777Z,16.50
2022-11-10T05:32:54.949Z,3.04
2022-11-10T05:38:01.938Z,9.98
2022-11-10T05:43:09.149Z,6.16
2022-11-10T05:48:16.168Z,6.76
2022-11-10T05:53:23.682Z,4.65
2022-11-10T05:58:29.926Z,4.93
2022-11-10T06:03:36.999Z,4.34
2022-11-10T06:08:43.962Z,4.47
2022-11-10T06:13:52.247Z,5.45
2022-11-10T06:18:52.951Z,4.37
2022-11-10T06:24:00.158Z,6.14
2022-11-10T06:29:07.496Z,7.75
2022-11-10T06:34:14.595Z,7.62
2022-11-10T06:39:23.781Z,11.21
2022-11-10T06:44:30.963Z,10.93
2022-11-10T06:49:38.012Z,12.53
2022-11-10T06:54:45.147Z,10.87
2022-11-10T06:59:45.607Z,14.28
2022-11-10T07:04:52.710Z,8.51
2022-11-10T07:10:05.684Z,8.75
2022-11-10T07:15:07.800Z,9.37
2022-11-10T07:20:13.812Z,9.15
2022-11-10T07:25:20.948Z,5.16
2022-11-10T07:30:28.064Z,9.92
2022-11-10T07:35:37.064Z,9.88
2022-11-10T07:40:44.048Z,10.01
2022-11-10T07:45:51.362Z,13.25
2022-11-10T07:50:58.251Z,10.59
2022-11-10T07:56:05.411Z,10.92
2022-11-10T08:01:12.519Z,9.20
2022-11-10T08:06:19.522Z,10.65
2022-11-10T08:11:26.461Z,6.80
2022-11-10T08:16:33.572Z,9.44
2022-11-10T08:21:40.497Z,11.25
2022-11-10T08:26:50.537Z,7.94
2022-11-10T08:31:47.524Z,9.63
2022-11-10T08:36:54.565Z,9.46
2022-11-10T08:42:01.663Z,15.13
2022-11-10T08:47:08.661Z,11.26
2022-11-10T08:52:15.692Z,12.84
2022-11-10T08:57:22.921Z,15.37
2022-11-10T09:02:29.993Z,14.65
2022-11-10T09:07:37.127Z,11.30
2022-11-10T09:12:44.041Z,13.32
2022-11-10T09:17:51.102Z,13.06
2022-11-10T09:22:58.121Z,12.38
2022-11-10T09:28:05.115Z,20.34
2022-11-10T09:33:12.204Z,12.42
2022-11-10T09:38:19.551Z,11.37
2022-11-10T09:43:28.824Z,13.88
2022-11-10T09:48:35.934Z,10.05
2022-11-10T09:53:42.891Z,14.20
2022-11-10T09:58:49.853Z,12.22
2022-11-10T10:03:56.860Z,13.06
2022-11-10T10:09:03.918Z,16.08
2022-11-10T10:14:10.828Z,18.36
2022-11-10T10:19:17.950Z,15.95
2022-11-10T10:24:24.858Z,16.25
2022-11-10T10:29:37.034Z,16.90
2022-11-10T10:34:38.268Z,19.41
2022-11-10T10:39:45.341Z,14.46
2022-11-10T10:44:52.416Z,16.49
2022-11-10T10:49:59.556Z,15.99
2022-11-10T10:55:06.574Z,20.06
2022-11-10T11:00:13.645Z,14.86
2022-11-10T11:05:20.704Z,15.11
2022-11-10T11:10:27.676Z,16.70
2022-11-10T11:15:34.718Z,17.01
2022-11-10T11:20:41.744Z,15.04
2022-11-10T11:25:48.856Z,21.78
2022-11-10T11:30:55.907Z,17.72
2022-11-10T11:36:02.993Z,21.08
2022-11-10T11:41:13.027Z,23.52
2022-11-10T11:46:10.205Z,21.77
2022-11-10T11:51:17.216Z,16.83
2022-11-10T11:56:24.326Z,22.33
2022-11-10T12:01:31.277Z,20.02
2022-11-10T12:06:38.326Z,23.96
2022-11-10T12:11:45.371Z,21.43
2022-11-10T12:16:52.442Z,18.91
2022-11-10T12:21:59.774Z,22.05
2022-11-10T12:27:06.747Z,20.81
2022-11-10T12:32:13.699Z,20.27
2022-11-10T12:37:32.007Z,25.83
2022-11-10T12:42:29.105Z,23.50
2022-11-10T12:47:46.467Z,24.68
2022-11-10T12:52:42.573Z,23.01
2022-11-10T12:57:49.654Z,24.65
2022-11-10T13:02:56.553Z,23.48
2022-11-10T13:08:03.636Z,26.17
2022-11-10T13:13:10.740Z,25.29
2022-11-10T13:18:22.793Z,33.76
2022-11-10T13:23:19.698Z,30.86
2022-11-10T13:28:26.901Z,28.80
2022-11-10T13:33:38.708Z,31.96
2022-11-10T13:38:38.045Z,29.31
2022-11-10T13:43:45.102Z,21.51
2022-11-10T13:48:52.481Z,21.45
2022-11-10T13:53:59.519Z,21.30
2022-11-10T13:59:06.766Z,22.44
2022-11-10T14:04:14.056Z,22.73
2022-11-10T14:09:21.120Z,19.44
2022-11-10T14:14:28.295Z,21.22
2022-11-10T14:19:35.323Z,21.61
2022-11-10T14:24:42.308Z,22.38
2022-11-10T14:29:49.309Z,17.38
2022-11-10T14:34:56.543Z,24.26
2022-11-10T14:40:04.052Z,22.41
2022-11-10T14:45:13.203Z,19.10
2022-11-10T14:50:25.435Z,21.34
2022-11-10T14:55:21.959Z,18.47
2022-11-10T15:00:31.446Z,18.95
2022-11-10T15:05:38.712Z,21.01
2022-11-10T15:10:45.677Z,20.00
2022-11-10T15:15:52.768Z,22.62
2022-11-10T15:20:59.702Z,19.67
2022-11-10T15:26:07.882Z,16.15
2022-11-10T15:31:14.704Z,17.61
2022-11-10T15:36:21.846Z,22.09
2022-11-10T15:41:30.084Z,19.77
2022-11-10T15:46:39.978Z,17.94
2022-11-10T15:51:55.034Z,20.84
2022-11-10T15:56:56.791Z,22.39
2022-11-10T16:02:05.233Z,19.69
2022-11-10T16:07:02.455Z,18.69
2022-11-10T16:12:12.265Z,16.70
2022-11-10T16:17:21.115Z,20.32
2022-11-10T16:22:32.569Z,25.18
2022-11-10T16:27:29.631Z,26.69
2022-11-10T16:32:36.672Z,18.67
2022-11-10T16:37:43.767Z,19.30
2022-11-10T16:42:50.760Z,14.96
2022-11-10T16:47:57.818Z,21.92
2022-11-10T16:53:04.879Z,16.36
2022-11-10T16:58:12.189Z,22.01
2022-11-10T17:03:19.328Z,22.90
2022-11-10T17:08:26.615Z,20.53
2022-11-10T17:13:33.748Z,23.67
2022-11-10T17:18:42.746Z,21.77
2022-11-10T17:23:50.968Z,27.08
2022-11-10T17:28:58.269Z,24.82
2022-11-10T17:34:05.273Z,28.92
2022-11-10T17:39:12.551Z,30.47
2022-11-10T17:44:20.906Z,29.14
2022-11-10T17:49:28.065Z,28.56
2022-11-10T17:54:34.987Z,29.92
2022-11-10T17:59:42.331Z,30.50
2022-11-10T18:04:50.388Z,30.81
2022-11-10T18:10:00.531Z,29.78
2022-11-10T18:14:57.499Z,25.04
2022-11-10T18:20:04.581Z,28.39
2022-11-10T18:25:11.621Z,29.22
2022-11-10T18:30:18.719Z,35.36
2022-11-10T18:35:25.640Z,31.89
2022-11-10T18:40:32.688Z,33.05
2022-11-10T18:45:41.221Z,35.62
2022-11-10T18:50:48.459Z,39.95
2022-11-10T18:55:55.509Z,38.62
2022-11-10T19:01:02.695Z,34.80
2022-11-10T19:06:09.938Z,46.06
2022-11-10T19:11:17.123Z,36.74
2022-11-10T19:16:24.158Z,36.27
2022-11-10T19:21:31.379Z,35.16
2022-11-10T19:26:38.536Z,38.09
2022-11-10T19:31:45.722Z,44.08
2022-11-10T19:36:52.748Z,42.36
2022-11-10T19:41:59.992Z,42.60
2022-11-10T19:47:07.082Z,46.46
2022-11-10T19:52:14.248Z,45.50
2022-11-10T19:57:21.188Z,46.10
2022-11-10T20:02:28.233Z,48.89
2022-11-10T20:07:35.210Z,47.07
2022-11-10T20:12:42.441Z,45.72
2022-11-10T20:17:49.583Z,47.30
2022-11-10T20:22:56.768Z,46.95
2022-11-10T20:28:03.847Z,46.22
2022-11-10T20:33:10.868Z,40.76
2022-11-10T20:38:19.716Z,44.98
2022-11-10T20:43:25.973Z,41.92
2022-11-10T20:48:32.897Z,39.96
2022-11-10T20:53:39.935Z,42.43
2022-11-10T20:58:47.019Z,40.06
2022-11-10T21:03:54.261Z,41.77
2022-11-10T21:09:01.393Z,41.28
2022-11-10T21:14:08.462Z,41.28
2022-11-10T21:19:15.529Z,35.59
2022-11-10T21:24:22.609Z,46.64
2022-11-10T21:29:30.199Z,41.47
2022-11-10T21:34:37.301Z,41.81
2022-11-10T21:39:44.295Z,35.62
2022-11-10T21:44:51.354Z,39.31
2022-11-10T21:49:58.361Z,37.29
2022-11-10T21:55:05.627Z,33.43
2022-11-10T22:00:12.588Z,34.68
2022-11-10T22:05:19.799Z,36.35
2022-11-10T22:10:26.790Z,32.43
2022-11-10T22:15:33.977Z,35.12
2022-11-10T22:20:40.944Z,28.63
2022-11-10T22:25:48.277Z,27.97
2022-11-10T22:30:56.355Z,25.63
2022-11-10T22:36:03.471Z,27.49
2022-11-10T22:41:10.499Z,28.78
2022-11-10T22:46:17.587Z,29.19
2022-11-10T22:51:24.559Z,35.39
2022-11-10T22:56:31.707Z,35.88
2022-11-10T23:01:38.820Z,26.92
2022-11-10T23:06:45.819Z,37.17
2022-11-10T23:11:52.966Z,35.26
2022-11-10T23:17:00.057Z,31.93
2022-11-10T23:22:07.363Z,27.93
2022-11-10T23:27:14.404Z,30.68
2022-11-10T23:32:21.465Z,28.45
2022-11-10T23:37:30.753Z,27.45
2022-11-10T23:42:37.726Z,23.74
2022-11-10T23:47:44.759Z,21.02
2022-11-10T23:52:51.751Z,22.78
2022-11-10T23:57:58.775Z,20.33
